sensor_id;sensor_type;location;lat;lon;timestamp;pressure;altitude;pressure_sealevel;temperature;humidity
68965;BME280;56017;48.680;8.998;2022-12-20T00:02:23;97240;;;4.5;84.5
68965;BME280;56017;48.680;8.998;2022-12-20T00:07:25;97230;;;4.8;84.5
68965;BME280;56017;48.680;8.998;2022-12-20T00:09:55;97220;;;4.8;84.5
68965;BME280;56017;48.680;8.998;2022-12-20T00:22:29;97200;;;4.8;83.5
68965;BME280;56017;48.680;8.998;2022-12-20T00:27:31;97210;;;4.7;84
68965;BME280;56017;48.680;8.998;2022-12-20T00:32:32;97200;;;4.9;84
68965;BME280;56017;48.680;8.998;2022-12-20T00:40:05;97200;;;4.8;84.5
68965;BME280;56017;48.680;8.998;2022-12-20T00:42:35;97200;;;4.8;84
68965;BME280;56017;48.680;8.998;2022-12-20T00:47:37;97180;;;4.8;84
68965;BME280;56017;48.680;8.998;2022-12-20T00:52:39;97190;;;4.8;84
68965;BME280;56017;48.680;8.998;2022-12-20T01:00:24;97190;;;4.8;84
68965;BME280;56017;48.680;8.998;2022-12-20T01:03:07;97190;;;4.7;84.5
68965;BME280;56017;48.680;8.998;2022-12-20T01:05:31;97200;;;4.7;85
68965;BME280;56017;48.680;8.998;2022-12-20T01:08:01;97210;;;4.8;85
68965;BME280;56017;48.680;8.998;2022-12-20T01:10:24;97210;;;5;84.5
68965;BME280;56017;48.680;8.998;2022-12-20T01:12:54;97210;;;4.9;84.5
68965;BME280;56017;48.680;8.998;2022-12-20T01:15:32;97200;;;4.9;84.5
68965;BME280;56017;48.680;8.998;2022-12-20T01:18:08;97200;;;4.8;84
68965;BME280;56017;48.680;8.998;2022-12-20T01:20:25;97190;;;4.8;84.5
68965;BME280;56017;48.680;8.998;2022-12-20T01:23:09;97200;;;4.7;84.5
68965;BME280;56017;48.680;8.998;2022-12-20T01:25:32;97210;;;4.5;85
68965;BME280;56017;48.680;8.998;2022-12-20T01:28:02;97210;;;4.7;84.5
68965;BME280;56017;48.680;8.998;2022-12-20T01:30:26;97200;;;4.8;84.5
68965;BME280;56017;48.680;8.998;2022-12-20T01:32:56;97190;;;4.7;84
68965;BME280;56017;48.680;8.998;2022-12-20T01:35:26;97200;;;4.6;84.5
68965;BME280;56017;48.680;8.998;2022-12-20T01:38:03;97200;;;4.5;85
68965;BME280;56017;48.680;8.998;2022-12-20T01:40:26;97200;;;4.6;85
68965;BME280;56017;48.680;8.998;2022-12-20T01:43:11;97210;;;4.6;85
68965;BME280;56017;48.680;8.998;2022-12-20T01:45:28;97210;;;4.6;85
68965;BME280;56017;48.680;8.998;2022-12-20T01:48:04;97200;;;4.6;85.5
68965;BME280;56017;48.680;8.998;2022-12-20T01:50:28;97190;;;4.8;84.5
68965;BME280;56017;48.680;8.998;2022-12-20T01:53:11;97190;;;4.7;84.5
68965;BME280;56017;48.680;8.998;2022-12-20T01:55:28;97180;;;4.7;85
68965;BME280;56017;48.680;8.998;2022-12-20T01:58:06;97180;;;4.6;85
68965;BME280;56017;48.680;8.998;2022-12-20T02:00:29;97180;;;4.6;84.5
68965;BME280;56017;48.680;8.998;2022-12-20T02:03:13;97180;;;4.6;84.5
68965;BME280;56017;48.680;8.998;2022-12-20T02:05:36;97170;;;4.6;85
68965;BME280;56017;48.680;8.998;2022-12-20T02:10:35;97180;;;4.5;85
68965;BME280;56017;48.680;8.998;2022-12-20T02:13:17;97170;;;4.5;85
68965;BME280;56017;48.680;8.998;2022-12-20T02:15:34;97170;;;4.5;85
68965;BME280;56017;48.680;8.998;2022-12-20T02:18:12;97170;;;4.4;85.5
68965;BME280;56017;48.680;8.998;2022-12-20T02:20:34;97170;;;4.6;84.5
68965;BME280;56017;48.680;8.998;2022-12-20T02:23:18;97170;;;4.6;84
68965;BME280;56017;48.680;8.998;2022-12-20T02:25:41;97170;;;4.7;84.5
68965;BME280;56017;48.680;8.998;2022-12-20T02:30:36;97170;;;4.7;84
68965;BME280;56017;48.680;8.998;2022-12-20T02:33:02;97170;;;4.5;84
68965;BME280;56017;48.680;8.998;2022-12-20T02:35:32;97160;;;4.5;84.5
68965;BME280;56017;48.680;8.998;2022-12-20T02:38:25;97170;;;4.4;83.5
68965;BME280;56017;48.680;8.998;2022-12-20T02:40:33;97170;;;4.3;83.5
68965;BME280;56017;48.680;8.998;2022-12-20T02:43:02;97160;;;4.3;84
68965;BME280;56017;48.680;8.998;2022-12-20T02:45:39;97160;;;4.4;84
68965;BME280;56017;48.680;8.998;2022-12-20T02:48:10;97160;;;4.4;84
68965;BME280;56017;48.680;8.998;2022-12-20T02:50:34;97160;;;4.4;84.5
68965;BME280;56017;48.680;8.998;2022-12-20T02:53:03;97160;;;4.4;85
68965;BME280;56017;48.680;8.998;2022-12-20T02:55:50;97150;;;4.4;85
68965;BME280;56017;48.680;8.998;2022-12-20T02:58:21;97150;;;4.3;85
68965;BME280;56017;48.680;8.998;2022-12-20T03:00:35;97140;;;4.2;85
68965;BME280;56017;48.680;8.998;2022-12-20T03:03:12;97130;;;4.2;85.5
68965;BME280;56017;48.680;8.998;2022-12-20T03:05:44;97140;;;4.3;85
68965;BME280;56017;48.680;8.998;2022-12-20T03:08:11;97160;;;4.3;84.5
68965;BME280;56017;48.680;8.998;2022-12-20T03:10:34;97160;;;4.5;85
68965;BME280;56017;48.680;8.998;2022-12-20T03:13:17;97140;;;4.8;85
68965;BME280;56017;48.680;8.998;2022-12-20T03:15:35;97140;;;4.9;84.5
68965;BME280;56017;48.680;8.998;2022-12-20T03:18:11;97130;;;4.8;84.5
68965;BME280;56017;48.680;8.998;2022-12-20T03:20:34;97120;;;4.7;84.5
68965;BME280;56017;48.680;8.998;2022-12-20T03:23:18;97120;;;4.6;84.5
68965;BME280;56017;48.680;8.998;2022-12-20T03:25:35;97110;;;4.4;84.5
68965;BME280;56017;48.680;8.998;2022-12-20T03:28:12;97100;;;4.3;85
68965;BME280;56017;48.680;8.998;2022-12-20T03:30:35;97100;;;4.3;85
68965;BME280;56017;48.680;8.998;2022-12-20T03:33:05;97110;;;4.2;85
68965;BME280;56017;48.680;8.998;2022-12-20T03:35:36;97130;;;4.3;85.5
68965;BME280;56017;48.680;8.998;2022-12-20T03:38:12;97140;;;4.5;85
68965;BME280;56017;48.680;8.998;2022-12-20T03:40:36;97140;;;4.7;85.5
68965;BME280;56017;48.680;8.998;2022-12-20T03:43:19;97130;;;4.9;85.5
68965;BME280;56017;48.680;8.998;2022-12-20T03:45:43;97130;;;4.9;85
68965;BME280;56017;48.680;8.998;2022-12-20T03:48:13;97120;;;4.8;85.5
68965;BME280;56017;48.680;8.998;2022-12-20T03:50:36;97120;;;5;84.5
68965;BME280;56017;48.680;8.998;2022-12-20T03:53:20;97120;;;4.8;85
68965;BME280;56017;48.680;8.998;2022-12-20T03:55:37;97110;;;4.8;85.5
68965;BME280;56017;48.680;8.998;2022-12-20T03:58:14;97110;;;4.8;84.5
68965;BME280;56017;48.680;8.998;2022-12-20T04:00:37;97110;;;4.8;84.5
68965;BME280;56017;48.680;8.998;2022-12-20T04:03:21;97100;;;4.8;84.5
68965;BME280;56017;48.680;8.998;2022-12-20T04:05:38;97100;;;4.7;85
68965;BME280;56017;48.680;8.998;2022-12-20T04:08:15;97090;;;4.6;85
68965;BME280;56017;48.680;8.998;2022-12-20T04:10:38;97090;;;4.6;85
68965;BME280;56017;48.680;8.998;2022-12-20T04:13:08;97090;;;4.5;85
68965;BME280;56017;48.680;8.998;2022-12-20T04:15:39;97100;;;4.6;85.5
68965;BME280;56017;48.680;8.998;2022-12-20T04:18:26;97100;;;4.9;85
68965;BME280;56017;48.680;8.998;2022-12-20T04:20:39;97110;;;4.9;85
68965;BME280;56017;48.680;8.998;2022-12-20T04:23:09;97100;;;5.1;85.5
68965;BME280;56017;48.680;8.998;2022-12-20T04:25:46;97100;;;5.3;85
68965;BME280;56017;48.680;8.998;2022-12-20T04:30:39;97100;;;5.4;84.5
68965;BME280;56017;48.680;8.998;2022-12-20T04:33:23;97100;;;5.4;84
68965;BME280;56017;48.680;8.998;2022-12-20T04:35:40;97090;;;5.4;84
68965;BME280;56017;48.680;8.998;2022-12-20T04:38:17;97090;;;5.3;84.5
68965;BME280;56017;48.680;8.998;2022-12-20T04:40:40;97080;;;5.2;84
68965;BME280;56017;48.680;8.998;2022-12-20T04:43:17;97080;;;4.9;84.5
68965;BME280;56017;48.680;8.998;2022-12-20T04:45:41;97070;;;4.7;85
68965;BME280;56017;48.680;8.998;2022-12-20T04:48:18;97070;;;4.7;85
68965;BME280;56017;48.680;8.998;2022-12-20T04:50:41;97070;;;4.8;85.5
68965;BME280;56017;48.680;8.998;2022-12-20T04:53:11;97060;;;5;84.5
68965;BME280;56017;48.680;8.998;2022-12-20T04:55:42;97060;;;5;84
68965;BME280;56017;48.680;8.998;2022-12-20T04:58:24;97070;;;4.8;84.5
68965;BME280;56017;48.680;8.998;2022-12-20T05:00:42;97070;;;4.9;85.5
68965;BME280;56017;48.680;8.998;2022-12-20T05:03:26;97060;;;5.1;85.5
68965;BME280;56017;48.680;8.998;2022-12-20T05:05:42;97060;;;5.3;84.5
68965;BME280;56017;48.680;8.998;2022-12-20T05:08:19;97060;;;5.3;84.5
68965;BME280;56017;48.680;8.998;2022-12-20T05:10:42;97050;;;5.2;84
68965;BME280;56017;48.680;8.998;2022-12-20T05:13:26;97060;;;4.9;84.5
68965;BME280;56017;48.680;8.998;2022-12-20T05:15:50;97050;;;4.9;85.5
68965;BME280;56017;48.680;8.998;2022-12-20T05:18:20;97050;;;5;85.5
68965;BME280;56017;48.680;8.998;2022-12-20T05:20:44;97050;;;5.1;85.5
68965;BME280;56017;48.680;8.998;2022-12-20T05:23:26;97040;;;5.2;85.5
68965;BME280;56017;48.680;8.998;2022-12-20T05:25:46;97050;;;5.3;84.5
68965;BME280;56017;48.680;8.998;2022-12-20T05:28:20;97050;;;5.1;84
68965;BME280;56017;48.680;8.998;2022-12-20T05:30:44;97040;;;5.1;84
68965;BME280;56017;48.680;8.998;2022-12-20T05:33:27;97040;;;5;85
68965;BME280;56017;48.680;8.998;2022-12-20T05:35:45;97050;;;5.1;85.5
68965;BME280;56017;48.680;8.998;2022-12-20T05:38:22;97050;;;5.1;85.5
68965;BME280;56017;48.680;8.998;2022-12-20T05:40:46;97040;;;5.1;85.5
68965;BME280;56017;48.680;8.998;2022-12-20T05:43:15;97040;;;5.1;85.5
68965;BME280;56017;48.680;8.998;2022-12-20T05:45:52;97030;;;5.1;85.5
68965;BME280;56017;48.680;8.998;2022-12-20T05:48:22;97030;;;5.3;85.5
68965;BME280;56017;48.680;8.998;2022-12-20T05:50:45;97030;;;5.3;85
68965;BME280;56017;48.680;8.998;2022-12-20T05:53:25;97030;;;5.2;85
68965;BME280;56017;48.680;8.998;2022-12-20T05:55:52;97020;;;5.2;85.5
68965;BME280;56017;48.680;8.998;2022-12-20T05:58:23;97010;;;5.2;85.5
68965;BME280;56017;48.680;8.998;2022-12-20T06:00:46;97010;;;5.2;85
68965;BME280;56017;48.680;8.998;2022-12-20T06:05:47;97010;;;5.3;84.5
68965;BME280;56017;48.680;8.998;2022-12-20T06:08:23;97020;;;5.3;84
68965;BME280;56017;48.680;8.998;2022-12-20T06:10:47;97020;;;5.1;84.5
68965;BME280;56017;48.680;8.998;2022-12-20T06:13:17;97020;;;5.1;85
68965;BME280;56017;48.680;8.998;2022-12-20T06:15:54;97010;;;5.2;85
68965;BME280;56017;48.680;8.998;2022-12-20T06:18:24;97010;;;5.1;85
68965;BME280;56017;48.680;8.998;2022-12-20T06:20:48;97020;;;5.2;84.5
68965;BME280;56017;48.680;8.998;2022-12-20T06:23:31;97020;;;5.2;84.5
68965;BME280;56017;48.680;8.998;2022-12-20T06:25:55;97020;;;5.1;85
68965;BME280;56017;48.680;8.998;2022-12-20T06:30:52;97030;;;5;85.5
68965;BME280;56017;48.680;8.998;2022-12-20T06:33:32;97020;;;5.1;85.5
68965;BME280;56017;48.680;8.998;2022-12-20T06:35:55;97030;;;5.2;84.5
68965;BME280;56017;48.680;8.998;2022-12-20T06:38:26;97030;;;5.3;84.5
68965;BME280;56017;48.680;8.998;2022-12-20T06:40:49;97030;;;5.3;83.5
68965;BME280;56017;48.680;8.998;2022-12-20T06:43:33;97030;;;5.1;84
68965;BME280;56017;48.680;8.998;2022-12-20T06:45:50;97030;;;5.1;84.5
68965;BME280;56017;48.680;8.998;2022-12-20T06:48:26;97030;;;5.1;84.5
68965;BME280;56017;48.680;8.998;2022-12-20T06:50:50;97020;;;5;85
68965;BME280;56017;48.680;8.998;2022-12-20T06:53:33;97030;;;5;85
68965;BME280;56017;48.680;8.998;2022-12-20T06:55:50;97020;;;5.2;84.5
68965;BME280;56017;48.680;8.998;2022-12-20T06:58:27;97020;;;5.1;85
68965;BME280;56017;48.680;8.998;2022-12-20T07:00:51;97020;;;5.1;85
68965;BME280;56017;48.680;8.998;2022-12-20T07:03:28;97020;;;5;85.5
68965;BME280;56017;48.680;8.998;2022-12-20T07:05:52;97010;;;5;85.5
68965;BME280;56017;48.680;8.998;2022-12-20T07:08:28;97020;;;5.1;85.5
68965;BME280;56017;48.680;8.998;2022-12-20T07:11:02;97020;;;5.1;85.5
68965;BME280;56017;48.680;8.998;2022-12-20T07:13:35;97020;;;5.2;85.5
68965;BME280;56017;48.680;8.998;2022-12-20T07:15:56;97010;;;5.3;85
68965;BME280;56017;48.680;8.998;2022-12-20T07:18:29;97010;;;5.3;84
68965;BME280;56017;48.680;8.998;2022-12-20T07:20:52;97010;;;5.2;84.5
68965;BME280;56017;48.680;8.998;2022-12-20T07:23:22;97010;;;5.1;85
68965;BME280;56017;48.680;8.998;2022-12-20T07:25:59;97010;;;5.1;85.5
68965;BME280;56017;48.680;8.998;2022-12-20T07:28:30;97010;;;5.1;85.5
68965;BME280;56017;48.680;8.998;2022-12-20T07:30:53;97010;;;5.3;85.5
68965;BME280;56017;48.680;8.998;2022-12-20T07:33:36;97010;;;5.5;85
68965;BME280;56017;48.680;8.998;2022-12-20T07:36:00;97020;;;5.7;85
68965;BME280;56017;48.680;8.998;2022-12-20T07:40:53;97020;;;5.6;85
68965;BME280;56017;48.680;8.998;2022-12-20T07:45:55;97020;;;5.6;85
68965;BME280;56017;48.680;8.998;2022-12-20T07:48:31;97010;;;5.5;85.5
68965;BME280;56017;48.680;8.998;2022-12-20T07:50:55;97010;;;5.6;84
68965;BME280;56017;48.680;8.998;2022-12-20T07:53:39;97010;;;5.5;84
68965;BME280;56017;48.680;8.998;2022-12-20T07:56:01;97010;;;5.4;85
68965;BME280;56017;48.680;8.998;2022-12-20T07:58:33;97010;;;5.6;85
68965;BME280;56017;48.680;8.998;2022-12-20T08:00:55;97010;;;5.7;85
68965;BME280;56017;48.680;8.998;2022-12-20T08:03:40;97020;;;5.9;84.5
68965;BME280;56017;48.680;8.998;2022-12-20T08:05:57;97020;;;5.7;84.5
68965;BME280;56017;48.680;8.998;2022-12-20T08:08:33;97020;;;5.7;85
68965;BME280;56017;48.680;8.998;2022-12-20T08:10:55;97020;;;5.9;85
68965;BME280;56017;48.680;8.998;2022-12-20T08:13:39;97010;;;6;86
68965;BME280;56017;48.680;8.998;2022-12-20T08:15:57;97010;;;6.1;86
68965;BME280;56017;48.680;8.998;2022-12-20T08:18:33;97010;;;6.3;86
68965;BME280;56017;48.680;8.998;2022-12-20T08:20:56;97010;;;6.6;85
68965;BME280;56017;48.680;8.998;2022-12-20T08:23:41;97010;;;6.6;84.5
68965;BME280;56017;48.680;8.998;2022-12-20T08:25:59;97000;;;6.6;85
68965;BME280;56017;48.680;8.998;2022-12-20T08:28:33;96990;;;6.6;84.5
68965;BME280;56017;48.680;8.998;2022-12-20T08:31:01;96990;;;6.6;85
68965;BME280;56017;48.680;8.998;2022-12-20T08:33:35;96990;;;6.6;85.5
68965;BME280;56017;48.680;8.998;2022-12-20T08:36:05;96980;;;6.7;85.5
68965;BME280;56017;48.680;8.998;2022-12-20T08:38:35;96980;;;7;86
68965;BME280;56017;48.680;8.998;2022-12-20T08:41:06;96970;;;7.3;85.5
68965;BME280;56017;48.680;8.998;2022-12-20T08:43:28;96970;;;7.4;85.5
68965;BME280;56017;48.680;8.998;2022-12-20T08:45:59;96970;;;7.7;86
68965;BME280;56017;48.680;8.998;2022-12-20T08:48:35;96970;;;7.8;85
68965;BME280;56017;48.680;8.998;2022-12-20T08:51:00;96970;;;7.8;85.5
68965;BME280;56017;48.680;8.998;2022-12-20T08:53:29;96970;;;8;85.5
68965;BME280;56017;48.680;8.998;2022-12-20T08:56:05;96970;;;8;84.5
68965;BME280;56017;48.680;8.998;2022-12-20T08:58:37;96970;;;7.9;84.5
68965;BME280;56017;48.680;8.998;2022-12-20T09:00:59;96980;;;7.8;85
68965;BME280;56017;48.680;8.998;2022-12-20T09:06:04;96970;;;7.9;85
68965;BME280;56017;48.680;8.998;2022-12-20T09:08:37;96960;;;7.8;85.5
68965;BME280;56017;48.680;8.998;2022-12-20T09:11:04;96950;;;7.9;85.5
68965;BME280;56017;48.680;8.998;2022-12-20T09:13:37;96960;;;7.7;85.5
68965;BME280;56017;48.680;8.998;2022-12-20T09:16:01;96970;;;7.7;84.5
68965;BME280;56017;48.680;8.998;2022-12-20T09:18:37;96970;;;7.6;85
68965;BME280;56017;48.680;8.998;2022-12-20T09:21:01;96970;;;7.7;85.5
68965;BME280;56017;48.680;8.998;2022-12-20T09:23:31;96980;;;7.9;86
68965;BME280;56017;48.680;8.998;2022-12-20T09:26:02;96980;;;8;86
68965;BME280;56017;48.680;8.998;2022-12-20T09:31:02;96970;;;8.4;84.5
68965;BME280;56017;48.680;8.998;2022-12-20T09:33:45;96970;;;8.5;84.5
68965;BME280;56017;48.680;8.998;2022-12-20T09:36:02;96970;;;8.4;84
68965;BME280;56017;48.680;8.998;2022-12-20T09:38:38;96970;;;8.4;85
68965;BME280;56017;48.680;8.998;2022-12-20T09:41:38;96960;;;8.5;85.5
68965;BME280;56017;48.680;8.998;2022-12-20T09:43:45;96960;;;8.5;86
68965;BME280;56017;48.680;8.998;2022-12-20T09:46:03;96950;;;8.9;85
68965;BME280;56017;48.680;8.998;2022-12-20T09:52:11;96950;;;9.2;84.5
68965;BME280;56017;48.680;8.998;2022-12-20T09:56:09;96930;;;9.3;84.5
68965;BME280;56017;48.680;8.998;2022-12-20T09:58:57;96930;;;9.3;85
68965;BME280;56017;48.680;8.998;2022-12-20T10:00:58;96930;;;9.1;85
68965;BME280;56017;48.680;8.998;2022-12-20T10:03:29;96930;;;9;85.5
68965;BME280;56017;48.680;8.998;2022-12-20T10:06:17;96930;;;9.2;85.5
68965;BME280;56017;48.680;8.998;2022-12-20T10:08:36;96930;;;9.3;85.5
68965;BME280;56017;48.680;8.998;2022-12-20T10:12:16;96920;;;9.5;84.5
68965;BME280;56017;48.680;8.998;2022-12-20T10:14:00;96930;;;9.4;85
68965;BME280;56017;48.680;8.998;2022-12-20T10:15:58;96920;;;9.4;85
68965;BME280;56017;48.680;8.998;2022-12-20T10:23:31;96910;;;9;84.5
68965;BME280;56017;48.680;8.998;2022-12-20T10:26:00;96900;;;8.8;84.5
68965;BME280;56017;48.680;8.998;2022-12-20T10:33:32;96900;;;8.8;86
68965;BME280;56017;48.680;8.998;2022-12-20T10:36:34;96900;;;9;85.5
68965;BME280;56017;48.680;8.998;2022-12-20T10:46:06;96890;;;8.9;85.5
68965;BME280;56017;48.680;8.998;2022-12-20T10:51:12;96890;;;9;85
68965;BME280;56017;48.680;8.998;2022-12-20T10:54:42;96880;;;9.1;85
68965;BME280;56017;48.680;8.998;2022-12-20T10:56:27;96880;;;9.2;85
68965;BME280;56017;48.680;8.998;2022-12-20T10:58:53;96870;;;9.4;85
68965;BME280;56017;48.680;8.998;2022-12-20T11:04:06;96870;;;9.4;85
68965;BME280;56017;48.680;8.998;2022-12-20T11:06:25;96860;;;9.4;86
68965;BME280;56017;48.680;8.998;2022-12-20T11:08:53;96850;;;9.7;86
68965;BME280;56017;48.680;8.998;2022-12-20T11:11:23;96850;;;9.8;84.5
68965;BME280;56017;48.680;8.998;2022-12-20T11:14:12;96850;;;9.7;84
68965;BME280;56017;48.680;8.998;2022-12-20T11:16:27;96840;;;9.5;84.5
68965;BME280;56017;48.680;8.998;2022-12-20T11:21:30;96840;;;9.3;86
68965;BME280;56017;48.680;8.998;2022-12-20T11:23:51;96830;;;9.4;85.5
68965;BME280;56017;48.680;8.998;2022-12-20T11:26:40;96830;;;9.5;86
68965;BME280;56017;48.680;8.998;2022-12-20T11:31:39;96830;;;9.7;84.5
68965;BME280;56017;48.680;8.998;2022-12-20T11:34:12;96830;;;9.4;85
68965;BME280;56017;48.680;8.998;2022-12-20T11:36:29;96820;;;9.5;85.5
68965;BME280;56017;48.680;8.998;2022-12-20T11:39:06;96820;;;9.6;85
68965;BME280;56017;48.680;8.998;2022-12-20T11:41:37;96810;;;9.6;85
68965;BME280;56017;48.680;8.998;2022-12-20T11:49:05;96800;;;9.6;86.5
68965;BME280;56017;48.680;8.998;2022-12-20T11:51:35;96800;;;9.8;85.5
68965;BME280;56017;48.680;8.998;2022-12-20T11:54:09;96790;;;9.8;85
68965;BME280;56017;48.680;8.998;2022-12-20T11:56:38;96800;;;9.9;85.5
68965;BME280;56017;48.680;8.998;2022-12-20T11:59:32;96800;;;9.9;86
68965;BME280;56017;48.680;8.998;2022-12-20T12:01:39;96790;;;9.9;85
68965;BME280;56017;48.680;8.998;2022-12-20T12:04:19;96790;;;9.8;85
68965;BME280;56017;48.680;8.998;2022-12-20T12:06:40;96790;;;9.7;84.5
68965;BME280;56017;48.680;8.998;2022-12-20T12:10:14;96780;;;9.7;85
68965;BME280;56017;48.680;8.998;2022-12-20T12:11:41;96790;;;9.7;85.5
68965;BME280;56017;48.680;8.998;2022-12-20T12:19:07;96780;;;9.7;85
68965;BME280;56017;48.680;8.998;2022-12-20T12:21:46;96770;;;9.8;86
68965;BME280;56017;48.680;8.998;2022-12-20T12:24:18;96770;;;9.8;85.5
68965;BME280;56017;48.680;8.998;2022-12-20T12:26:46;96770;;;9.9;86
68965;BME280;56017;48.680;8.998;2022-12-20T12:29:23;96780;;;10;86.5
68965;BME280;56017;48.680;8.998;2022-12-20T12:32:03;96780;;;10.2;86.5
68965;BME280;56017;48.680;8.998;2022-12-20T12:34:34;96780;;;10.3;86.5
68965;BME280;56017;48.680;8.998;2022-12-20T12:38:14;96770;;;10.4;86.5
68965;BME280;56017;48.680;8.998;2022-12-20T12:39:37;96770;;;10.5;87
68965;BME280;56017;48.680;8.998;2022-12-20T12:41:52;96770;;;10.5;86
68965;BME280;56017;48.680;8.998;2022-12-20T12:47:02;96750;;;10.1;85.5
68965;BME280;56017;48.680;8.998;2022-12-20T12:49:25;96740;;;10.1;85.5
68965;BME280;56017;48.680;8.998;2022-12-20T12:51:49;96730;;;10;85
68965;BME280;56017;48.680;8.998;2022-12-20T12:54:22;96740;;;9.8;85
68965;BME280;56017;48.680;8.998;2022-12-20T12:57:02;96750;;;9.7;85.5
68965;BME280;56017;48.680;8.998;2022-12-20T12:59:22;96740;;;9.7;86.5
68965;BME280;56017;48.680;8.998;2022-12-20T13:01:46;96720;;;9.8;86.5
68965;BME280;56017;48.680;8.998;2022-12-20T13:04:24;96730;;;9.8;86.5
68965;BME280;56017;48.680;8.998;2022-12-20T13:09:19;96720;;;10.1;86
68965;BME280;56017;48.680;8.998;2022-12-20T13:11:55;96740;;;10.2;85.5
68965;BME280;56017;48.680;8.998;2022-12-20T13:19:35;96730;;;10.1;86
68965;BME280;56017;48.680;8.998;2022-12-20T13:21:56;96730;;;10.1;85.5
68965;BME280;56017;48.680;8.998;2022-12-20T13:24:34;96730;;;9.9;85.5
68965;BME280;56017;48.680;8.998;2022-12-20T13:27:28;96730;;;9.9;86
68965;BME280;56017;48.680;8.998;2022-12-20T13:29:22;96730;;;10;85.5
68965;BME280;56017;48.680;8.998;2022-12-20T13:31:50;96730;;;9.9;85
68965;BME280;56017;48.680;8.998;2022-12-20T13:34:59;96730;;;9.9;85.5
68965;BME280;56017;48.680;8.998;2022-12-20T13:36:57;96730;;;9.9;85.5
68965;BME280;56017;48.680;8.998;2022-12-20T13:39:30;96730;;;9.9;85
68965;BME280;56017;48.680;8.998;2022-12-20T13:42:14;96720;;;9.6;85
68965;BME280;56017;48.680;8.998;2022-12-20T13:44:30;96720;;;9.6;86
68965;BME280;56017;48.680;8.998;2022-12-20T13:47:06;96700;;;9.6;86
68965;BME280;56017;48.680;8.998;2022-12-20T13:49:28;96710;;;9.5;85
68965;BME280;56017;48.680;8.998;2022-12-20T13:52:15;96700;;;9.4;85.5
68965;BME280;56017;48.680;8.998;2022-12-20T13:54:40;96700;;;9.5;85.5
68965;BME280;56017;48.680;8.998;2022-12-20T13:57:00;96700;;;10.9;84.5
68965;BME280;56017;48.680;8.998;2022-12-20T13:59:38;96700;;;12.2;83
68965;BME280;56017;48.680;8.998;2022-12-20T14:02:08;96680;;;12.4;83
68965;BME280;56017;48.680;8.998;2022-12-20T14:04:41;96690;;;12;84
68965;BME280;56017;48.680;8.998;2022-12-20T14:12:13;96680;;;11.1;85.5
68965;BME280;56017;48.680;8.998;2022-12-20T14:14:45;96680;;;10.9;84.5
68965;BME280;56017;48.680;8.998;2022-12-20T14:17:16;96680;;;10.5;84.5
68965;BME280;56017;48.680;8.998;2022-12-20T14:19:45;96680;;;10.2;85
68965;BME280;56017;48.680;8.998;2022-12-20T14:22:10;96670;;;10.1;85
68965;BME280;56017;48.680;8.998;2022-12-20T14:24:52;96670;;;9.9;85
68965;BME280;56017;48.680;8.998;2022-12-20T14:27:12;96670;;;9.7;85.5
68965;BME280;56017;48.680;8.998;2022-12-20T14:29:50;96670;;;9.6;85
68965;BME280;56017;48.680;8.998;2022-12-20T14:32:21;96680;;;9.5;85.5
68965;BME280;56017;48.680;8.998;2022-12-20T14:37:27;96690;;;9.9;86.5
68965;BME280;56017;48.680;8.998;2022-12-20T14:42:18;96690;;;10.1;86.5
68965;BME280;56017;48.680;8.998;2022-12-20T14:45:04;96690;;;10.1;86.5
68965;BME280;56017;48.680;8.998;2022-12-20T14:47:23;96670;;;10.1;86
68965;BME280;56017;48.680;8.998;2022-12-20T14:50:24;96670;;;9.9;85.5
68965;BME280;56017;48.680;8.998;2022-12-20T14:52:25;96660;;;9.7;86
68965;BME280;56017;48.680;8.998;2022-12-20T14:55:10;96650;;;9.7;85.5
68965;BME280;56017;48.680;8.998;2022-12-20T14:57:26;96660;;;9.7;85
68965;BME280;56017;48.680;8.998;2022-12-20T15:00:09;96660;;;9.7;84.5
68965;BME280;56017;48.680;8.998;2022-12-20T15:02:32;96650;;;9.3;84
68965;BME280;56017;48.680;8.998;2022-12-20T15:07:28;96650;;;9;85.5
68965;BME280;56017;48.680;8.998;2022-12-20T15:10:05;96640;;;9.1;85.5
68965;BME280;56017;48.680;8.998;2022-12-20T15:12:29;96640;;;9;85
68965;BME280;56017;48.680;8.998;2022-12-20T15:17:31;96650;;;8.6;85
68965;BME280;56017;48.680;8.998;2022-12-20T15:20:11;96660;;;8.2;85
68965;BME280;56017;48.680;8.998;2022-12-20T15:22:34;96650;;;8;86
68965;BME280;56017;48.680;8.998;2022-12-20T15:25:13;96650;;;8.2;86.5
68965;BME280;56017;48.680;8.998;2022-12-20T15:27:42;96650;;;8.3;86.5
68965;BME280;56017;48.680;8.998;2022-12-20T15:32:44;96640;;;8.3;85.5
68965;BME280;56017;48.680;8.998;2022-12-20T15:35:12;96650;;;8.1;85.5
68965;BME280;56017;48.680;8.998;2022-12-20T15:37:40;96660;;;8.2;85.5
68965;BME280;56017;48.680;8.998;2022-12-20T15:40:12;96660;;;8.2;85
68965;BME280;56017;48.680;8.998;2022-12-20T15:42:42;96660;;;8.2;84.5
68965;BME280;56017;48.680;8.998;2022-12-20T15:45:12;96650;;;8.2;85
68965;BME280;56017;48.680;8.998;2022-12-20T15:47:43;96650;;;8.1;85.5
68965;BME280;56017;48.680;8.998;2022-12-20T15:50:14;96650;;;8;85.5
68965;BME280;56017;48.680;8.998;2022-12-20T15:52:51;96650;;;7.8;86
68965;BME280;56017;48.680;8.998;2022-12-20T15:55:16;96650;;;7.9;85
68965;BME280;56017;48.680;8.998;2022-12-20T15:57:53;96650;;;7.8;85
68965;BME280;56017;48.680;8.998;2022-12-20T16:00:18;96660;;;7.7;85.5
68965;BME280;56017;48.680;8.998;2022-12-20T16:02:55;96660;;;7.8;85.5
68965;BME280;56017;48.680;8.998;2022-12-20T16:05:20;96650;;;7.8;85
68965;BME280;56017;48.680;8.998;2022-12-20T16:07:51;96650;;;7.6;84.5
68965;BME280;56017;48.680;8.998;2022-12-20T16:10:21;96650;;;7.4;84.5
68965;BME280;56017;48.680;8.998;2022-12-20T16:12:59;96650;;;7.3;85.5
68965;BME280;56017;48.680;8.998;2022-12-20T16:15:23;96650;;;7.4;86
68965;BME280;56017;48.680;8.998;2022-12-20T16:18:01;96640;;;7.6;86
68965;BME280;56017;48.680;8.998;2022-12-20T16:20:25;96640;;;7.9;86.5
68965;BME280;56017;48.680;8.998;2022-12-20T16:22:57;96650;;;8.1;86.5
68965;BME280;56017;48.680;8.998;2022-12-20T16:30:34;96650;;;8.1;86
68965;BME280;56017;48.680;8.998;2022-12-20T16:33:05;96650;;;8.3;85
68965;BME280;56017;48.680;8.998;2022-12-20T16:35:33;96650;;;8.2;85
68965;BME280;56017;48.680;8.998;2022-12-20T16:38:03;96650;;;7.9;84.5
68965;BME280;56017;48.680;8.998;2022-12-20T16:40:34;96660;;;7.8;85.5
68965;BME280;56017;48.680;8.998;2022-12-20T16:45:35;96660;;;8.3;86.5
68965;BME280;56017;48.680;8.998;2022-12-20T16:48:13;96650;;;8.5;86.5
68965;BME280;56017;48.680;8.998;2022-12-20T16:50:45;96650;;;8.8;86.5
68965;BME280;56017;48.680;8.998;2022-12-20T16:53:11;96650;;;9;85.5